sensor_id;sensor_type;location;lat;lon;timestamp;pressure;altitude;pressure_sealevel;temperature;humidity
49949;BME280;35840;45.982;8.890;2023-01-29T00:01:57;99077.16;;;0.69;63.19
49949;BME280;35840;45.982;8.890;2023-01-29T00:04:23;99084.84;;;0.57;63.63
49949;BME280;35840;45.982;8.890;2023-01-29T00:06:50;99089.03;;;0.61;63.57
49949;BME280;35840;45.982;8.890;2023-01-29T00:09:17;99094.88;;;0.67;63.16
49949;BME280;35840;45.982;8.890;2023-01-29T00:11:44;99092.38;;;0.66;63.74
49949;BME280;35840;45.982;8.890;2023-01-29T00:14:11;99100.81;;;0.65;63.58
49949;BME280;35840;45.982;8.890;2023-01-29T00:16:37;99082.31;;;0.57;63.45
49949;BME280;35840;45.982;8.890;2023-01-29T00:19:04;99093.28;;;0.59;64.25
49949;BME280;35840;45.982;8.890;2023-01-29T00:21:31;99100.84;;;0.62;63.73
49949;BME280;35840;45.982;8.890;2023-01-29T00:23:58;99097.50;;;0.60;63.65
49949;BME280;35840;45.982;8.890;2023-01-29T00:26:26;99091.59;;;0.58;63.25
49949;BME280;35840;45.982;8.890;2023-01-29T00:28:53;99089.97;;;0.50;63.29
49949;BME280;35840;45.982;8.890;2023-01-29T00:31:23;99096.69;;;0.53;63.67
49949;BME280;35840;45.982;8.890;2023-01-29T00:33:51;99095.75;;;0.63;63.59
49949;BME280;35840;45.982;8.890;2023-01-29T00:36:19;99092.34;;;0.69;63.87
49949;BME280;35840;45.982;8.890;2023-01-29T00:38:46;99097.41;;;0.67;63.13
49949;BME280;35840;45.982;8.890;2023-01-29T00:41:21;99095.03;;;0.50;63.83
49949;BME280;35840;45.982;8.890;2023-01-29T00:44:07;99091.69;;;0.48;63.74
49949;BME280;35840;45.982;8.890;2023-01-29T00:46:52;99101.75;;;0.53;63.97
49949;BME280;35840;45.982;8.890;2023-01-29T00:49:19;99102.56;;;0.57;63.44
49949;BME280;35840;45.982;8.890;2023-01-29T00:51:46;99098.41;;;0.48;63.11
49949;BME280;35840;45.982;8.890;2023-01-29T00:54:31;99100.91;;;0.49;63.35
49949;BME280;35840;45.982;8.890;2023-01-29T00:56:59;99097.63;;;0.40;63.40
49949;BME280;35840;45.982;8.890;2023-01-29T00:59:26;99097.69;;;0.33;64.41
49949;BME280;35840;45.982;8.890;2023-01-29T01:01:53;99099.25;;;0.45;64.17
49949;BME280;35840;45.982;8.890;2023-01-29T01:04:39;99088.31;;;0.46;63.53
49949;BME280;35840;45.982;8.890;2023-01-29T01:07:06;99091.69;;;0.45;63.79
49949;BME280;35840;45.982;8.890;2023-01-29T01:09:36;99091.72;;;0.39;63.59
49949;BME280;35840;45.982;8.890;2023-01-29T01:12:21;99101.03;;;0.37;63.61
49949;BME280;35840;45.982;8.890;2023-01-29T01:14:48;99096.84;;;0.31;63.68
49949;BME280;35840;45.982;8.890;2023-01-29T01:17:15;99105.22;;;0.40;64.44
49949;BME280;35840;45.982;8.890;2023-01-29T01:19:42;99111.19;;;0.29;63.84
49949;BME280;35840;45.982;8.890;2023-01-29T01:22:09;99105.31;;;0.26;64.37
49949;BME280;35840;45.982;8.890;2023-01-29T01:24:36;99106.13;;;0.28;65.36
49949;BME280;35840;45.982;8.890;2023-01-29T01:27:04;99109.50;;;0.27;64.11
49949;BME280;35840;45.982;8.890;2023-01-29T01:29:31;99106.94;;;0.34;63.78
49949;BME280;35840;45.982;8.890;2023-01-29T01:31:58;99112.06;;;0.25;63.75
49949;BME280;35840;45.982;8.890;2023-01-29T01:34:25;99107.03;;;0.21;63.90
49949;BME280;35840;45.982;8.890;2023-01-29T01:36:53;99117.97;;;0.21;63.99
49949;BME280;35840;45.982;8.890;2023-01-29T01:39:22;99127.28;;;0.17;64.59
49949;BME280;35840;45.982;8.890;2023-01-29T01:41:50;99119.72;;;0.14;65.15
49949;BME280;35840;45.982;8.890;2023-01-29T01:47:21;99116.31;;;0.17;64.59
49949;BME280;35840;45.982;8.890;2023-01-29T01:49:49;99102.81;;;0.21;64.43
49949;BME280;35840;45.982;8.890;2023-01-29T01:52:17;99117.91;;;0.35;64.44
49949;BME280;35840;45.982;8.890;2023-01-29T01:54:45;99102.81;;;0.21;64.49
49949;BME280;35840;45.982;8.890;2023-01-29T01:57:16;99115.44;;;0.21;64.82
49949;BME280;35840;45.982;8.890;2023-01-29T01:59:50;99111.31;;;0.11;64.73
49949;BME280;35840;45.982;8.890;2023-01-29T02:02:19;99113.06;;;-0.02;64.39
49949;BME280;35840;45.982;8.890;2023-01-29T02:05:06;99122.34;;;-0.03;65.80
49949;BME280;35840;45.982;8.890;2023-01-29T02:07:51;99120.63;;;0.03;64.96
49949;BME280;35840;45.982;8.890;2023-01-29T02:10:47;99123.97;;;0.08;65.02
49949;BME280;35840;45.982;8.890;2023-01-29T02:13:15;99127.38;;;0.01;64.91
49949;BME280;35840;45.982;8.890;2023-01-29T02:15:45;99133.31;;;-0.05;65.14
49949;BME280;35840;45.982;8.890;2023-01-29T02:18:18;99133.31;;;-0.13;65.88
49949;BME280;35840;45.982;8.890;2023-01-29T02:21:12;99125.75;;;-0.13;65.67
49949;BME280;35840;45.982;8.890;2023-01-29T02:24:06;99134.13;;;-0.03;64.59
49949;BME280;35840;45.982;8.890;2023-01-29T02:26:44;99141.69;;;0.03;65.13
49949;BME280;35840;45.982;8.890;2023-01-29T02:29:43;99140.84;;;-0.01;65.74
49949;BME280;35840;45.982;8.890;2023-01-29T02:37:44;99153.50;;;-0.04;63.92
49949;BME280;35840;45.982;8.890;2023-01-29T02:46:14;99145.97;;;-0.16;64.58
49949;BME280;35840;45.982;8.890;2023-01-29T02:54:49;99147.63;;;-0.07;64.47
49949;BME280;35840;45.982;8.890;2023-01-29T02:57:26;99151.88;;;-0.19;64.68
49949;BME280;35840;45.982;8.890;2023-01-29T02:59:59;99151.88;;;-0.20;64.46
49949;BME280;35840;45.982;8.890;2023-01-29T03:02:36;99151.91;;;-0.25;64.82
49949;BME280;35840;45.982;8.890;2023-01-29T03:05:10;99130.94;;;-0.45;65.27
49949;BME280;35840;45.982;8.890;2023-01-29T03:07:41;99150.28;;;-0.38;65.45
49949;BME280;35840;45.982;8.890;2023-01-29T03:11:05;99160.34;;;-0.27;65.27
49949;BME280;35840;45.982;8.890;2023-01-29T03:13:42;99158.72;;;-0.39;65.04
49949;BME280;35840;45.982;8.890;2023-01-29T03:16:16;99154.50;;;-0.34;65.09
49949;BME280;35840;45.982;8.890;2023-01-29T03:18:50;99150.25;;;-0.29;65.53
49949;BME280;35840;45.982;8.890;2023-01-29T03:21:24;99154.44;;;-0.22;65.05
49949;BME280;35840;45.982;8.890;2023-01-29T03:24:11;99157.81;;;-0.27;65.36
49949;BME280;35840;45.982;8.890;2023-01-29T03:27:01;99151.09;;;-0.33;65.23
49949;BME280;35840;45.982;8.890;2023-01-29T03:29:49;99152.81;;;-0.38;66.04
49949;BME280;35840;45.982;8.890;2023-01-29T03:33:01;99162.84;;;-0.24;65.42
49949;BME280;35840;45.982;8.890;2023-01-29T03:35:32;99153.59;;;-0.22;64.38
49949;BME280;35840;45.982;8.890;2023-01-29T03:38:08;99159.53;;;-0.32;64.90
49949;BME280;35840;45.982;8.890;2023-01-29T03:40:49;99160.41;;;-0.38;65.81
49949;BME280;35840;45.982;8.890;2023-01-29T03:46:12;99158.69;;;-0.33;65.69
49949;BME280;35840;45.982;8.890;2023-01-29T03:51:24;99161.19;;;-0.24;65.18
49949;BME280;35840;45.982;8.890;2023-01-29T03:54:17;99163.72;;;-0.25;64.40
49949;BME280;35840;45.982;8.890;2023-01-29T03:57:07;99167.97;;;-0.38;64.93
49949;BME280;35840;45.982;8.890;2023-01-29T04:03:23;99169.69;;;-0.54;65.83
49949;BME280;35840;45.982;8.890;2023-01-29T04:05:57;99168.84;;;-0.52;65.47
49949;BME280;35840;45.982;8.890;2023-01-29T04:09:18;99172.19;;;-0.53;66.53
49949;BME280;35840;45.982;8.890;2023-01-29T04:12:04;99162.94;;;-0.49;65.76
49949;BME280;35840;45.982;8.890;2023-01-29T04:14:37;99167.13;;;-0.43;65.08
49949;BME280;35840;45.982;8.890;2023-01-29T04:17:17;99167.16;;;-0.51;65.09
49949;BME280;35840;45.982;8.890;2023-01-29T04:19:55;99162.94;;;-0.58;64.64
49949;BME280;35840;45.982;8.890;2023-01-29T04:22:27;99169.69;;;-0.48;65.18
49949;BME280;35840;45.982;8.890;2023-01-29T04:24:58;99169.69;;;-0.48;65.34
49949;BME280;35840;45.982;8.890;2023-01-29T04:32:50;99165.50;;;-0.63;65.48
49949;BME280;35840;45.982;8.890;2023-01-29T04:35:27;99171.38;;;-0.53;65.01
49949;BME280;35840;45.982;8.890;2023-01-29T04:38:02;99176.44;;;-0.61;65.71
49949;BME280;35840;45.982;8.890;2023-01-29T04:40:34;99178.97;;;-0.67;65.64
49949;BME280;35840;45.982;8.890;2023-01-29T04:43:24;99173.09;;;-0.71;66.10
49949;BME280;35840;45.982;8.890;2023-01-29T04:46:09;99164.66;;;-0.70;66.40
49949;BME280;35840;45.982;8.890;2023-01-29T04:53:54;99152.06;;;-0.68;65.88
49949;BME280;35840;45.982;8.890;2023-01-29T04:56:33;99157.09;;;-0.62;65.27
49949;BME280;35840;45.982;8.890;2023-01-29T04:59:07;99137.75;;;-0.71;65.13
49949;BME280;35840;45.982;8.890;2023-01-29T05:01:36;99143.63;;;-0.61;66.09
49949;BME280;35840;45.982;8.890;2023-01-29T05:04:08;99154.53;;;-0.56;65.57
49949;BME280;35840;45.982;8.890;2023-01-29T05:06:36;99156.25;;;-0.61;66.30
49949;BME280;35840;45.982;8.890;2023-01-29T05:09:05;99150.38;;;-0.67;66.73
49949;BME280;35840;45.982;8.890;2023-01-29T05:11:33;99149.53;;;-0.76;65.74
49949;BME280;35840;45.982;8.890;2023-01-29T05:14:02;99159.63;;;-0.66;65.17
49949;BME280;35840;45.982;8.890;2023-01-29T05:16:33;99162.13;;;-0.71;65.43
49949;BME280;35840;45.982;8.890;2023-01-29T05:19:12;99173.09;;;-0.75;66.63
49949;BME280;35840;45.982;8.890;2023-01-29T05:21:43;99174.75;;;-0.73;65.34
49949;BME280;35840;45.982;8.890;2023-01-29T05:26:37;99180.66;;;-0.78;65.19
49949;BME280;35840;45.982;8.890;2023-01-29T05:29:22;99174.78;;;-0.76;65.39
49949;BME280;35840;45.982;8.890;2023-01-29T05:31:48;99161.31;;;-0.82;64.76
49949;BME280;35840;45.982;8.890;2023-01-29T05:34:15;99167.22;;;-0.82;66.16
49949;BME280;35840;45.982;8.890;2023-01-29T05:36:42;99187.44;;;-0.85;65.49
49949;BME280;35840;45.982;8.890;2023-01-29T05:39:09;99178.16;;;-0.89;65.85
49949;BME280;35840;45.982;8.890;2023-01-29T05:41:35;99184.91;;;-0.83;65.25
49949;BME280;35840;45.982;8.890;2023-01-29T05:44:02;99184.03;;;-0.82;65.21
49949;BME280;35840;45.982;8.890;2023-01-29T05:46:29;99180.69;;;-0.86;65.11
49949;BME280;35840;45.982;8.890;2023-01-29T05:48:56;99190.78;;;-0.86;65.07
49949;BME280;35840;45.982;8.890;2023-01-29T05:51:22;99187.41;;;-0.83;65.04
49949;BME280;35840;45.982;8.890;2023-01-29T05:53:49;99191.63;;;-0.92;65.09
49949;BME280;35840;45.982;8.890;2023-01-29T05:56:16;99193.28;;;-0.94;65.60
49949;BME280;35840;45.982;8.890;2023-01-29T05:58:42;99188.25;;;-0.98;66.68
49949;BME280;35840;45.982;8.890;2023-01-29T06:01:12;99204.25;;;-1.02;65.54
49949;BME280;35840;45.982;8.890;2023-01-29T06:03:40;99199.19;;;-0.98;66.98
49949;BME280;35840;45.982;8.890;2023-01-29T06:06:07;99200.03;;;-0.91;65.79
49949;BME280;35840;45.982;8.890;2023-01-29T06:08:34;99202.56;;;-0.90;65.68
49949;BME280;35840;45.982;8.890;2023-01-29T06:11:01;99201.72;;;-1.01;65.90
49949;BME280;35840;45.982;8.890;2023-01-29T06:13:28;99206.78;;;-1.07;65.50
49949;BME280;35840;45.982;8.890;2023-01-29T06:15:54;99209.28;;;-1.07;66.40
49949;BME280;35840;45.982;8.890;2023-01-29T06:18:21;99211.81;;;-0.87;66.75
49949;BME280;35840;45.982;8.890;2023-01-29T06:20:48;99212.66;;;-0.90;65.22
49949;BME280;35840;45.982;8.890;2023-01-29T06:23:15;99219.41;;;-0.95;65.32
49949;BME280;35840;45.982;8.890;2023-01-29T06:25:41;99225.28;;;-1.02;64.94
49949;BME280;35840;45.982;8.890;2023-01-29T06:28:08;99225.25;;;-1.05;65.18
49949;BME280;35840;45.982;8.890;2023-01-29T06:30:35;99228.63;;;-1.01;67.03
49949;BME280;35840;45.982;8.890;2023-01-29T06:33:01;99235.38;;;-0.93;65.65
49949;BME280;35840;45.982;8.890;2023-01-29T06:35:28;99240.41;;;-0.88;64.78
49949;BME280;35840;45.982;8.890;2023-01-29T06:37:55;99240.44;;;-0.99;66.33
49949;BME280;35840;45.982;8.890;2023-01-29T06:40:22;99237.06;;;-1.12;65.64
49949;BME280;35840;45.982;8.890;2023-01-29T06:42:48;99247.16;;;-1.10;66.27
49949;BME280;35840;45.982;8.890;2023-01-29T06:45:15;99239.56;;;-1.07;66.43
49949;BME280;35840;45.982;8.890;2023-01-29T06:47:42;99240.44;;;-1.00;65.20
49949;BME280;35840;45.982;8.890;2023-01-29T06:50:10;99247.97;;;-1.08;65.50
49949;BME280;35840;45.982;8.890;2023-01-29T06:52:37;99246.28;;;-1.15;65.25
49949;BME280;35840;45.982;8.890;2023-01-29T06:55:04;99233.66;;;-1.18;66.82
49949;BME280;35840;45.982;8.890;2023-01-29T06:57:30;99247.97;;;-1.13;66.99
49949;BME280;35840;45.982;8.890;2023-01-29T06:59:57;99237.88;;;-1.19;66.13
49949;BME280;35840;45.982;8.890;2023-01-29T07:02:24;99258.06;;;-1.14;65.61
49949;BME280;35840;45.982;8.890;2023-01-29T07:04:50;99253.03;;;-1.11;66.96
49949;BME280;35840;45.982;8.890;2023-01-29T07:07:17;99255.53;;;-1.13;65.75
49949;BME280;35840;45.982;8.890;2023-01-29T07:09:44;99254.72;;;-1.13;66.95
49949;BME280;35840;45.982;8.890;2023-01-29T07:12:11;99251.31;;;-1.09;66.42
49949;BME280;35840;45.982;8.890;2023-01-29T07:14:37;99249.66;;;-1.06;66.37
49949;BME280;35840;45.982;8.890;2023-01-29T07:17:04;99247.97;;;-1.10;66.66
49949;BME280;35840;45.982;8.890;2023-01-29T07:19:31;99271.53;;;-1.08;67.02
49949;BME280;35840;45.982;8.890;2023-01-29T07:21:58;99268.16;;;-1.05;65.85
49949;BME280;35840;45.982;8.890;2023-01-29T07:24:27;99265.63;;;-1.13;66.49
49949;BME280;35840;45.982;8.890;2023-01-29T07:26:54;99269.00;;;-1.15;65.87
49949;BME280;35840;45.982;8.890;2023-01-29T07:29:21;99283.25;;;-1.24;67.01
49949;BME280;35840;45.982;8.890;2023-01-29T07:31:48;99282.44;;;-1.23;67.97
49949;BME280;35840;45.982;8.890;2023-01-29T07:34:15;99289.19;;;-1.20;66.89
49949;BME280;35840;45.982;8.890;2023-01-29T07:36:41;99291.69;;;-1.15;67.71
49949;BME280;35840;45.982;8.890;2023-01-29T07:39:08;99295.09;;;-1.13;68.16
49949;BME280;35840;45.982;8.890;2023-01-29T07:41:35;99290.03;;;-1.04;67.57
49949;BME280;35840;45.982;8.890;2023-01-29T07:44:09;99286.69;;;-1.00;66.85
49949;BME280;35840;45.982;8.890;2023-01-29T07:46:36;99299.31;;;-1.05;66.26
49949;BME280;35840;45.982;8.890;2023-01-29T07:49:02;99296.75;;;-1.09;67.31
49949;BME280;35840;45.982;8.890;2023-01-29T07:51:29;99293.38;;;-1.11;67.04
49949;BME280;35840;45.982;8.890;2023-01-29T07:53:56;99275.69;;;-1.28;68.03
49949;BME280;35840;45.982;8.890;2023-01-29T07:56:22;99322.00;;;-1.06;68.87
49949;BME280;35840;45.982;8.890;2023-01-29T07:58:49;99326.22;;;-0.94;68.68
49949;BME280;35840;45.982;8.890;2023-01-29T08:01:16;99336.31;;;-0.94;67.63
49949;BME280;35840;45.982;8.890;2023-01-29T08:03:42;99324.53;;;-1.05;68.62
49949;BME280;35840;45.982;8.890;2023-01-29T08:06:09;99328.75;;;-1.00;67.47
49949;BME280;35840;45.982;8.890;2023-01-29T08:08:36;99332.97;;;-0.84;68.57
49949;BME280;35840;45.982;8.890;2023-01-29T08:11:03;99318.66;;;-0.87;68.40
49949;BME280;35840;45.982;8.890;2023-01-29T08:13:31;99328.78;;;-0.76;67.56
49949;BME280;35840;45.982;8.890;2023-01-29T08:15:59;99311.09;;;-0.74;68.33
49949;BME280;35840;45.982;8.890;2023-01-29T08:18:26;99321.19;;;-0.73;69.58
49949;BME280;35840;45.982;8.890;2023-01-29T08:20:58;99328.78;;;-0.57;68.54
49949;BME280;35840;45.982;8.890;2023-01-29T08:23:25;99339.75;;;-0.47;68.95
49949;BME280;35840;45.982;8.890;2023-01-29T08:25:52;99335.53;;;-0.47;68.70
49949;BME280;35840;45.982;8.890;2023-01-29T08:28:19;99333.00;;;-0.36;69.04
49949;BME280;35840;45.982;8.890;2023-01-29T08:30:46;99333.84;;;-0.32;70.38
49949;BME280;35840;45.982;8.890;2023-01-29T08:33:12;99331.31;;;-0.31;70.71
49949;BME280;35840;45.982;8.890;2023-01-29T08:35:39;99322.06;;;-0.32;70.41
49949;BME280;35840;45.982;8.890;2023-01-29T08:38:08;99319.53;;;-0.30;69.74
49949;BME280;35840;45.982;8.890;2023-01-29T08:40:36;99338.06;;;-0.21;70.62
49949;BME280;35840;45.982;8.890;2023-01-29T08:43:06;99338.03;;;-0.13;70.04
49949;BME280;35840;45.982;8.890;2023-01-29T08:45:37;99330.47;;;-0.18;69.05
49949;BME280;35840;45.982;8.890;2023-01-29T08:48:06;99339.72;;;-0.09;70.06
49949;BME280;35840;45.982;8.890;2023-01-29T08:50:33;99342.25;;;-0.04;68.64
49949;BME280;35840;45.982;8.890;2023-01-29T08:53:02;99341.38;;;0.06;68.00
49949;BME280;35840;45.982;8.890;2023-01-29T08:55:29;99336.31;;;-0.02;68.37
49949;BME280;35840;45.982;8.890;2023-01-29T08:57:56;99350.63;;;0.06;68.77
49949;BME280;35840;45.982;8.890;2023-01-29T09:00:23;99344.75;;;0.02;67.81
49949;BME280;35840;45.982;8.890;2023-01-29T09:02:50;99345.59;;;0.09;68.17
49949;BME280;35840;45.982;8.890;2023-01-29T09:05:16;99350.63;;;0.16;67.56
49949;BME280;35840;45.982;8.890;2023-01-29T09:07:44;99339.69;;;0.14;67.10
49949;BME280;35840;45.982;8.890;2023-01-29T09:10:10;99348.91;;;0.31;67.48
49949;BME280;35840;45.982;8.890;2023-01-29T09:12:37;99353.94;;;0.45;65.51
49949;BME280;35840;45.982;8.890;2023-01-29T09:15:04;99360.69;;;0.41;66.19
49949;BME280;35840;45.982;8.890;2023-01-29T09:17:31;99353.09;;;0.40;66.60
49949;BME280;35840;45.982;8.890;2023-01-29T09:19:58;99356.47;;;0.43;65.51
49949;BME280;35840;45.982;8.890;2023-01-29T09:22:25;99343.81;;;0.43;65.88
49949;BME280;35840;45.982;8.890;2023-01-29T09:24:51;99347.16;;;0.45;65.71
49949;BME280;35840;45.982;8.890;2023-01-29T09:27:18;99317.69;;;0.35;65.15
49949;BME280;35840;45.982;8.890;2023-01-29T09:29:45;99339.56;;;0.55;66.22
49949;BME280;35840;45.982;8.890;2023-01-29T09:32:11;99343.75;;;0.59;65.77
49949;BME280;35840;45.982;8.890;2023-01-29T09:34:38;99347.09;;;0.67;65.84
49949;BME280;35840;45.982;8.890;2023-01-29T09:37:05;99342.88;;;0.67;65.80
49949;BME280;35840;45.982;8.890;2023-01-29T09:39:32;99343.69;;;0.76;66.14
49949;BME280;35840;45.982;8.890;2023-01-29T09:45:01;99346.16;;;0.83;68.16
49949;BME280;35840;45.982;8.890;2023-01-29T09:47:31;99347.03;;;0.82;67.39
49949;BME280;35840;45.982;8.890;2023-01-29T09:50:22;99341.13;;;0.82;67.60
49949;BME280;35840;45.982;8.890;2023-01-29T09:52:58;99344.50;;;0.78;67.71
49949;BME280;35840;45.982;8.890;2023-01-29T09:55:40;99345.31;;;0.84;67.44
49949;BME280;35840;45.982;8.890;2023-01-29T09:58:24;99338.56;;;0.83;68.00
49949;BME280;35840;45.982;8.890;2023-01-29T10:01:02;99340.25;;;0.86;67.86
49949;BME280;35840;45.982;8.890;2023-01-29T10:06:20;99331.00;;;0.87;67.64
49949;BME280;35840;45.982;8.890;2023-01-29T10:09:29;99323.38;;;0.85;67.58
49949;BME280;35840;45.982;8.890;2023-01-29T10:14:37;99325.84;;;0.96;68.10
49949;BME280;35840;45.982;8.890;2023-01-29T10:25:39;99323.16;;;1.19;66.57
49949;BME280;35840;45.982;8.890;2023-01-29T10:28:19;99311.41;;;1.16;65.39
49949;BME280;35840;45.982;8.890;2023-01-29T10:30:55;99308.00;;;1.17;64.94
49949;BME280;35840;45.982;8.890;2023-01-29T10:33:35;99307.13;;;1.22;63.60
49949;BME280;35840;45.982;8.890;2023-01-29T10:36:35;99298.66;;;1.24;63.01
49949;BME280;35840;45.982;8.890;2023-01-29T10:39:04;99291.06;;;1.23;62.56
49949;BME280;35840;45.982;8.890;2023-01-29T10:42:01;99276.44;;;1.55;61.15
49949;BME280;35840;45.982;8.890;2023-01-29T10:44:36;99269.38;;;1.87;60.56
49949;BME280;35840;45.982;8.890;2023-01-29T10:50:24;99252.41;;;1.94;60.73
49949;BME280;35840;45.982;8.890;2023-01-29T11:00:50;99238.06;;;1.93;58.27
49949;BME280;35840;45.982;8.890;2023-01-29T11:03:21;99242.28;;;1.92;58.57
49949;BME280;35840;45.982;8.890;2023-01-29T11:06:14;99239.75;;;1.94;59.03
49949;BME280;35840;45.982;8.890;2023-01-29T11:08:51;99226.25;;;1.88;58.81
49949;BME280;35840;45.982;8.890;2023-01-29T11:11:21;99216.56;;;2.23;60.99
49949;BME280;35840;45.982;8.890;2023-01-29T11:13:58;99224.28;;;2.78;57.40
49949;BME280;35840;45.982;8.890;2023-01-29T11:16:27;99213.38;;;2.72;57.79
49949;BME280;35840;45.982;8.890;2023-01-29T11:18:58;99202.41;;;2.69;58.60
49949;BME280;35840;45.982;8.890;2023-01-29T11:21:27;99197.50;;;2.58;57.76
49949;BME280;35840;45.982;8.890;2023-01-29T11:24:05;99165.31;;;2.60;57.89
49949;BME280;35840;45.982;8.890;2023-01-29T11:26:34;99188.88;;;2.68;57.38
49949;BME280;35840;45.982;8.890;2023-01-29T11:29:03;99176.09;;;2.74;57.42
49949;BME280;35840;45.982;8.890;2023-01-29T11:31:37;99177.03;;;2.69;58.10
49949;BME280;35840;45.982;8.890;2023-01-29T11:34:12;99169.41;;;2.69;58.19
49949;BME280;35840;45.982;8.890;2023-01-29T11:36:42;99169.06;;;2.90;59.01
49949;BME280;35840;45.982;8.890;2023-01-29T11:39:14;99166.34;;;3.01;58.04
49949;BME280;35840;45.982;8.890;2023-01-29T11:44:19;99161.09;;;3.12;56.53
49949;BME280;35840;45.982;8.890;2023-01-29T11:46:46;99161.78;;;3.20;56.48
49949;BME280;35840;45.982;8.890;2023-01-29T11:49:23;99155.25;;;3.54;55.58
49949;BME280;35840;45.982;8.890;2023-01-29T11:51:54;99151.69;;;3.62;54.01
49949;BME280;35840;45.982;8.890;2023-01-29T11:54:24;99148.75;;;3.84;54.20
49949;BME280;35840;45.982;8.890;2023-01-29T11:56:54;99149.53;;;3.86;53.41
49949;BME280;35840;45.982;8.890;2023-01-29T12:04:54;99141.22;;;4.20;53.54
49949;BME280;35840;45.982;8.890;2023-01-29T12:07:26;99132.72;;;4.21;51.46
49949;BME280;35840;45.982;8.890;2023-01-29T12:09:56;99130.91;;;4.25;52.82
49949;BME280;35840;45.982;8.890;2023-01-29T12:12:27;99129.19;;;4.27;52.93
49949;BME280;35840;45.982;8.890;2023-01-29T12:17:32;99115.25;;;4.42;54.83
49949;BME280;35840;45.982;8.890;2023-01-29T12:20:10;99112.41;;;4.56;53.52
49949;BME280;35840;45.982;8.890;2023-01-29T12:22:50;99106.19;;;4.66;53.63
49949;BME280;35840;45.982;8.890;2023-01-29T12:25:22;99108.78;;;4.64;52.64
49949;BME280;35840;45.982;8.890;2023-01-29T12:36:25;99092.34;;;4.78;53.06
49949;BME280;35840;45.982;8.890;2023-01-29T12:38:54;99081.69;;;4.96;50.66
49949;BME280;35840;45.982;8.890;2023-01-29T12:41:29;99080.78;;;4.99;51.26
49949;BME280;35840;45.982;8.890;2023-01-29T12:44:12;99073.22;;;4.94;52.29
49949;BME280;35840;45.982;8.890;2023-01-29T12:46:45;99074.75;;;5.02;51.16
49949;BME280;35840;45.982;8.890;2023-01-29T12:49:17;99073.00;;;5.04;50.69
49949;BME280;35840;45.982;8.890;2023-01-29T12:51:56;99060.97;;;5.09;50.75
49949;BME280;35840;45.982;8.890;2023-01-29T12:54:34;99062.72;;;5.07;50.79
49949;BME280;35840;45.982;8.890;2023-01-29T12:57:33;99050.53;;;5.18;49.78
49949;BME280;35840;45.982;8.890;2023-01-29T12:59:58;99034.38;;;5.19;49.61
49949;BME280;35840;45.982;8.890;2023-01-29T13:02:35;99048.34;;;5.35;48.41
49949;BME280;35840;45.982;8.890;2023-01-29T13:05:21;99035.00;;;5.27;50.18
49949;BME280;35840;45.982;8.890;2023-01-29T13:07:57;99038.84;;;5.41;48.31
49949;BME280;35840;45.982;8.890;2023-01-29T13:10:31;99034.53;;;5.43;49.26
49949;BME280;35840;45.982;8.890;2023-01-29T13:13:04;99031.94;;;5.44;49.19
49949;BME280;35840;45.982;8.890;2023-01-29T13:15:37;99025.09;;;5.46;49.40
49949;BME280;35840;45.982;8.890;2023-01-29T13:20:57;99015.56;;;5.53;48.86
49949;BME280;35840;45.982;8.890;2023-01-29T13:23:32;99012.78;;;5.61;48.51
49949;BME280;35840;45.982;8.890;2023-01-29T13:26:00;99015.22;;;5.64;49.97
49949;BME280;35840;45.982;8.890;2023-01-29T13:28:27;99010.63;;;5.75;48.78
49949;BME280;35840;45.982;8.890;2023-01-29T13:31:21;99009.75;;;5.76;48.45
49949;BME280;35840;45.982;8.890;2023-01-29T13:36:55;99009.44;;;5.87;47.98
49949;BME280;35840;45.982;8.890;2023-01-29T13:39:30;99008.25;;;5.99;47.76
49949;BME280;35840;45.982;8.890;2023-01-29T13:42:00;99005.81;;;5.94;46.75
49949;BME280;35840;45.982;8.890;2023-01-29T13:44:37;99009.16;;;5.96;47.84
49949;BME280;35840;45.982;8.890;2023-01-29T13:47:08;98987.41;;;5.84;47.56
49949;BME280;35840;45.982;8.890;2023-01-29T13:49:39;99002.38;;;5.95;47.37
49949;BME280;35840;45.982;8.890;2023-01-29T13:54:58;98988.72;;;5.96;48.56
49949;BME280;35840;45.982;8.890;2023-01-29T14:00:03;98978.00;;;6.13;47.77
49949;BME280;35840;45.982;8.890;2023-01-29T14:02:30;98980.22;;;6.24;46.90
49949;BME280;35840;45.982;8.890;2023-01-29T14:10:43;98962.09;;;6.32;47.18
49949;BME280;35840;45.982;8.890;2023-01-29T14:18:26;98952.69;;;6.34;46.59
49949;BME280;35840;45.982;8.890;2023-01-29T14:23:51;98939.00;;;6.35;47.39
49949;BME280;35840;45.982;8.890;2023-01-29T14:26:39;98942.34;;;6.37;47.45
49949;BME280;35840;45.982;8.890;2023-01-29T14:31:52;98930.31;;;6.41;46.96
49949;BME280;35840;45.982;8.890;2023-01-29T14:34:24;98930.22;;;6.44;47.47
49949;BME280;35840;45.982;8.890;2023-01-29T14:36:55;98923.50;;;6.41;47.62
49949;BME280;35840;45.982;8.890;2023-01-29T14:39:28;98931.41;;;6.33;48.07
49949;BME280;35840;45.982;8.890;2023-01-29T14:41:57;98935.72;;;6.31;47.64
49949;BME280;35840;45.982;8.890;2023-01-29T14:49:59;98943.78;;;6.19;48.33
49949;BME280;35840;45.982;8.890;2023-01-29T14:52:32;98946.41;;;6.17;47.82
49949;BME280;35840;45.982;8.890;2023-01-29T14:55:05;98955.84;;;6.15;48.90
49949;BME280;35840;45.982;8.890;2023-01-29T14:57:34;98953.34;;;6.14;50.24
49949;BME280;35840;45.982;8.890;2023-01-29T15:00:04;98944.94;;;6.10;49.42
49949;BME280;35840;45.982;8.890;2023-01-29T15:02:38;98958.53;;;6.11;49.28
49949;BME280;35840;45.982;8.890;2023-01-29T15:05:10;98958.69;;;6.06;48.76
49949;BME280;35840;45.982;8.890;2023-01-29T15:07:46;98959.81;;;5.97;49.35
49949;BME280;35840;45.982;8.890;2023-01-29T15:10:21;98950.31;;;6.02;48.40
49949;BME280;35840;45.982;8.890;2023-01-29T15:16:08;98941.06;;;5.98;49.18
49949;BME280;35840;45.982;8.890;2023-01-29T15:18:42;98940.28;;;5.95;49.00
49949;BME280;35840;45.982;8.890;2023-01-29T15:21:17;98928.63;;;5.88;48.84
49949;BME280;35840;45.982;8.890;2023-01-29T15:23:45;98937.16;;;5.86;49.14
49949;BME280;35840;45.982;8.890;2023-01-29T15:26:19;98933.97;;;5.80;49.75
49949;BME280;35840;45.982;8.890;2023-01-29T15:28:54;98930.72;;;5.75;50.03
49949;BME280;35840;45.982;8.890;2023-01-29T15:31:29;98936.91;;;5.67;51.08
49949;BME280;35840;45.982;8.890;2023-01-29T15:33:57;98925.31;;;5.57;51.59
49949;BME280;35840;45.982;8.890;2023-01-29T15:36:29;98929.94;;;5.46;52.24
49949;BME280;35840;45.982;8.890;2023-01-29T15:39:16;98930.09;;;5.40;52.11